createdAt,value
2023-07-03T00:00:54.646Z,94361.75
2023-07-03T00:03:21.872Z,94360.00
2023-07-03T00:05:51.665Z,94356.28
2023-07-03T00:08:18.745Z,94353.91
2023-07-03T00:10:45.850Z,94351.75
2023-07-03T00:13:12.629Z,94347.22
2023-07-03T00:15:39.439Z,94346.31
2023-07-03T00:18:06.591Z,94347.38
2023-07-03T00:20:33.389Z,94353.94
2023-07-03T00:23:01.428Z,94350.03
2023-07-03T00:25:28.553Z,94351.88
2023-07-03T00:27:55.373Z,94355.25
2023-07-03T00:30:22.477Z,94353.59
2023-07-03T00:32:49.265Z,94359.72
2023-07-03T00:35:16.081Z,94349.78
2023-07-03T00:37:43.243Z,94352.13
2023-07-03T00:40:10.947Z,94342.00
2023-07-03T00:42:37.697Z,94351.97
2023-07-03T00:45:08.704Z,94347.13
2023-07-03T00:47:35.458Z,94338.69
2023-07-03T00:50:03.497Z,94334.72
2023-07-03T00:52:30.280Z,94339.53
2023-07-03T00:54:56.986Z,94345.50
2023-07-03T00:57:24.087Z,94332.53
2023-07-03T00:59:53.392Z,94331.38
2023-07-03T01:02:25.714Z,94329.41
2023-07-03T01:05:08.599Z,94325.94
2023-07-03T01:07:35.455Z,94333.88
2023-07-03T01:10:14.154Z,94332.28
2023-07-03T01:12:43.111Z,94331.78
2023-07-03T01:15:12.482Z,94331.25
2023-07-03T01:17:39.391Z,94336.84
2023-07-03T01:20:07.593Z,94338.84
2023-07-03T01:22:45.647Z,94338.97
2023-07-03T01:25:13.461Z,94340.25
2023-07-03T01:27:41.410Z,94343.13
2023-07-03T01:30:10.282Z,94344.06
2023-07-03T01:32:37.128Z,94353.84
2023-07-03T01:35:04.321Z,94354.25
2023-07-03T01:37:31.458Z,94355.78
2023-07-03T01:39:58.198Z,94352.72
2023-07-03T01:42:25.940Z,94345.16
2023-07-03T01:44:52.743Z,94351.28
2023-07-03T01:47:19.495Z,94345.53
2023-07-03T01:49:46.279Z,94355.25
2023-07-03T01:52:27.408Z,94350.53
2023-07-03T01:55:29.457Z,94343.22
2023-07-03T01:58:13.931Z,94351.47
2023-07-03T02:00:52.659Z,94344.91
2023-07-03T02:04:16.057Z,94352.06
2023-07-03T02:06:43.449Z,94350.72
2023-07-03T02:09:10.177Z,94348.72
2023-07-03T02:11:36.968Z,94345.63
2023-07-03T02:14:04.026Z,94346.38
2023-07-03T02:16:31.090Z,94346.94
2023-07-03T02:18:58.553Z,94342.38
2023-07-03T02:21:25.691Z,94341.81
2023-07-03T02:23:52.464Z,94345.34
2023-07-03T02:26:19.193Z,94346.38
2023-07-03T02:28:46.338Z,94338.09
2023-07-03T02:31:13.605Z,94337.63
2023-07-03T02:33:41.953Z,94352.47
2023-07-03T02:36:08.661Z,94348.19
2023-07-03T02:38:35.396Z,94343.94
2023-07-03T02:41:02.402Z,94352.34
2023-07-03T02:43:29.148Z,94349.56
2023-07-03T02:45:55.859Z,94343.28
2023-07-03T02:48:22.600Z,94346.28
2023-07-03T02:50:53.924Z,94349.81
2023-07-03T02:53:20.696Z,94355.63
2023-07-03T02:55:51.229Z,94359.22
2023-07-03T02:58:18.529Z,94350.28
2023-07-03T03:00:45.301Z,94350.91
2023-07-03T03:03:12.125Z,94361.44
2023-07-03T03:05:39.046Z,94347.91
2023-07-03T03:08:05.830Z,94353.25
2023-07-03T03:10:32.571Z,94353.25
2023-07-03T03:12:59.334Z,94358.66
2023-07-03T03:15:27.215Z,94354.66
2023-07-03T03:17:55.789Z,94354.59
2023-07-03T03:20:22.606Z,94351.13
2023-07-03T03:22:49.846Z,94360.88
2023-07-03T03:25:16.620Z,94362.09
2023-07-03T03:27:43.362Z,94358.75
2023-07-03T03:30:11.855Z,94357.78
2023-07-03T03:32:39.124Z,94355.16
2023-07-03T03:35:06.334Z,94358.59
2023-07-03T03:37:33.079Z,94351.28
2023-07-03T03:39:59.789Z,94350.91
2023-07-03T03:42:26.620Z,94357.13
2023-07-03T03:44:53.359Z,94357.56
2023-07-03T03:47:20.180Z,94356.81
2023-07-03T03:49:47.550Z,94361.13
2023-07-03T03:52:14.353Z,94356.78
2023-07-03T03:54:41.205Z,94354.63
2023-07-03T03:57:07.943Z,94361.88
2023-07-03T03:59:34.661Z,94355.56
2023-07-03T04:02:01.520Z,94355.03
2023-07-03T04:04:28.549Z,94357.44
2023-07-03T04:06:55.309Z,94364.28
2023-07-03T04:09:22.060Z,94365.25
2023-07-03T04:11:48.809Z,94370.00
2023-07-03T04:14:15.519Z,94369.41
2023-07-03T04:16:42.395Z,94369.28
2023-07-03T04:19:10.189Z,94366.63
2023-07-03T04:21:39.458Z,94374.03
2023-07-03T04:24:15.829Z,94366.47
2023-07-03T04:26:42.700Z,94370.00
2023-07-03T04:29:09.494Z,94365.69
2023-07-03T04:31:36.352Z,94374.50
2023-07-03T04:34:03.174Z,94370.00
2023-07-03T04:36:29.968Z,94366.31
2023-07-03T04:38:56.750Z,94368.16
2023-07-03T04:41:26.558Z,94371.81
2023-07-03T04:44:05.298Z,94368.56
2023-07-03T04:46:32.662Z,94368.56
2023-07-03T04:48:59.488Z,94373.44
2023-07-03T04:51:26.626Z,94365.31
2023-07-03T04:53:56.333Z,94365.34
2023-07-03T04:56:23.065Z,94362.03
2023-07-03T04:58:51.281Z,94374.03
2023-07-03T05:01:19.610Z,94371.59
2023-07-03T05:03:48.494Z,94367.06
2023-07-03T05:06:15.713Z,94375.50
2023-07-03T05:08:42.849Z,94368.69
2023-07-03T05:11:09.759Z,94377.06
2023-07-03T05:13:36.653Z,94384.09
2023-07-03T05:16:03.716Z,94374.94
2023-07-03T05:18:31.067Z,94371.19
2023-07-03T05:20:58.211Z,94373.59
2023-07-03T05:23:24.939Z,94378.56
2023-07-03T05:25:51.808Z,94377.09
2023-07-03T05:28:19.389Z,94376.88
2023-07-03T05:30:48.156Z,94383.41
2023-07-03T05:33:16.243Z,94377.56
2023-07-03T05:35:50.531Z,94378.31
2023-07-03T05:38:36.194Z,94394.31
2023-07-03T05:41:21.844Z,94394.19
2023-07-03T05:44:07.230Z,94387.03
2023-07-03T05:46:52.856Z,94388.50
2023-07-03T05:49:38.446Z,94396.00
2023-07-03T05:52:23.926Z,94396.56
2023-07-03T05:55:09.890Z,94384.84
2023-07-03T05:57:55.922Z,94400.94
2023-07-03T06:00:40.982Z,94393.38
2023-07-03T06:03:26.762Z,94395.09
2023-07-03T06:06:11.915Z,94399.50
2023-07-03T06:08:57.807Z,94395.69
2023-07-03T06:11:42.974Z,94396.84
2023-07-03T06:14:29.604Z,94399.91
2023-07-03T06:17:15.693Z,94399.06
2023-07-03T06:20:01.398Z,94398.78
2023-07-03T06:22:46.686Z,94399.63
2023-07-03T06:25:32.111Z,94403.25
2023-07-03T06:28:17.366Z,94407.06
2023-07-03T06:31:02.985Z,94406.50
2023-07-03T06:33:48.274Z,94404.53
2023-07-03T06:36:33.663Z,94407.19
2023-07-03T06:39:19.066Z,94403.31
2023-07-03T06:42:04.853Z,94408.91
2023-07-03T06:44:50.606Z,94408.09
2023-07-03T06:47:36.565Z,94406.03
2023-07-03T06:50:22.276Z,94405.00
2023-07-03T06:53:08.184Z,94406.94
2023-07-03T06:55:59.103Z,94406.81
2023-07-03T06:58:45.227Z,94402.06
2023-07-03T07:01:30.969Z,94398.53
2023-07-03T07:04:16.598Z,94397.84
2023-07-03T07:07:02.245Z,94394.88
2023-07-03T07:09:47.749Z,94401.97
2023-07-03T07:12:33.263Z,94401.81
2023-07-03T07:15:18.793Z,94401.06
2023-07-03T07:18:05.499Z,94397.88
2023-07-03T07:20:51.079Z,94392.53
2023-07-03T07:23:36.512Z,94387.59
2023-07-03T07:26:22.337Z,94396.84
2023-07-03T07:29:08.129Z,94393.56
2023-07-03T07:31:54.850Z,94395.38
2023-07-03T07:34:41.955Z,94398.03
2023-07-03T07:37:28.042Z,94393.63
2023-07-03T07:40:14.513Z,94395.84
2023-07-03T07:43:03.188Z,94391.09
2023-07-03T07:45:53.550Z,94395.72
2023-07-03T07:48:39.681Z,94384.22
2023-07-03T07:51:25.234Z,94387.22
2023-07-03T07:54:10.578Z,94386.28
2023-07-03T07:56:57.277Z,94386.66
2023-07-03T07:59:42.396Z,94399.06
2023-07-03T08:02:27.925Z,94398.31
2023-07-03T08:05:13.636Z,94401.94
2023-07-03T08:08:02.090Z,94395.19
2023-07-03T08:10:55.219Z,94385.81
2023-07-03T08:13:41.337Z,94393.72
2023-07-03T08:16:26.969Z,94397.25
2023-07-03T08:19:12.680Z,94388.56
2023-07-03T08:21:58.881Z,94396.81
2023-07-03T08:24:58.620Z,94397.13
2023-07-03T08:27:47.613Z,94397.31
2023-07-03T08:30:33.087Z,94405.34
2023-07-03T08:33:18.840Z,94407.91
2023-07-03T08:38:55.608Z,94403.97
2023-07-03T08:41:52.227Z,94403.63
2023-07-03T08:44:39.025Z,94400.94
2023-07-03T08:47:25.429Z,94408.00
2023-07-03T08:50:28.027Z,94404.09
2023-07-03T08:53:22.218Z,94414.03
2023-07-03T08:56:14.368Z,94410.06
2023-07-03T08:58:59.522Z,94411.53
2023-07-03T09:01:51.665Z,94418.38
2023-07-03T09:04:49.498Z,94407.09
2023-07-03T09:07:38.602Z,94418.66
2023-07-03T09:10:47.288Z,94415.50
2023-07-03T09:13:38.816Z,94424.81
2023-07-03T09:16:25.679Z,94420.19
2023-07-03T09:19:14.712Z,94422.81
2023-07-03T09:22:03.267Z,94411.47
2023-07-03T09:24:49.115Z,94418.06
2023-07-03T09:27:36.621Z,94430.63
2023-07-03T09:30:22.326Z,94430.88
2023-07-03T09:33:08.063Z,94436.34
2023-07-03T09:35:53.880Z,94437.75
2023-07-03T09:38:39.512Z,94426.44
2023-07-03T09:41:28.846Z,94429.25
2023-07-03T09:44:16.301Z,94431.06
2023-07-03T09:47:01.395Z,94430.41
2023-07-03T09:49:46.914Z,94432.06
2023-07-03T09:52:33.284Z,94425.38
2023-07-03T09:55:20.417Z,94424.91
2023-07-03T09:58:17.526Z,94427.81
2023-07-03T10:01:03.541Z,94430.72
2023-07-03T10:03:49.303Z,94432.09
2023-07-03T10:06:35.166Z,94422.25
2023-07-03T10:12:21.766Z,94430.84
2023-07-03T10:15:14.860Z,94420.41
2023-07-03T10:18:22.082Z,94422.75
2023-07-03T10:21:11.486Z,94431.59
2023-07-03T10:23:57.225Z,94422.84
2023-07-03T10:26:45.470Z,94424.84
2023-07-03T10:29:34.298Z,94421.19
2023-07-03T10:32:19.827Z,94426.19
2023-07-03T10:35:11.294Z,94429.06
2023-07-03T10:38:11.329Z,94422.53
2023-07-03T10:41:06.330Z,94424.81
2023-07-03T10:43:54.794Z,94426.13
2023-07-03T10:47:15.790Z,94427.63
2023-07-03T10:50:01.564Z,94422.91
2023-07-03T10:52:57.794Z,94427.22
2023-07-03T10:56:01.953Z,94420.66
2023-07-03T10:58:54.830Z,94413.78
2023-07-03T11:01:54.961Z,94422.19
2023-07-03T11:04:56.212Z,94415.47
2023-07-03T11:07:46.260Z,94412.97
2023-07-03T11:10:45.346Z,94415.69
2023-07-03T11:13:39.824Z,94415.69
2023-07-03T11:16:28.364Z,94411.66
2023-07-03T11:19:58.583Z,94410.91
2023-07-03T11:23:15.882Z,94415.28
2023-07-03T11:29:16.646Z,94412.06
2023-07-03T11:32:03.319Z,94406.13
2023-07-03T11:40:40.544Z,94401.34
2023-07-03T11:43:41.521Z,94407.47
2023-07-03T11:46:29.829Z,94410.47
2023-07-03T11:49:15.482Z,94414.16
2023-07-03T11:52:02.562Z,94403.06
2023-07-03T11:54:54.830Z,94416.84
2023-07-03T11:57:41.870Z,94415.69
2023-07-03T12:00:28.319Z,94404.78
2023-07-03T12:03:13.273Z,94407.06
2023-07-03T12:05:58.960Z,94405.75
2023-07-03T12:08:45.556Z,94401.81
2023-07-03T12:11:31.642Z,94401.03
2023-07-03T12:14:42.825Z,94399.22
2023-07-03T12:17:35.920Z,94395.69
2023-07-03T12:20:25.406Z,94396.91
2023-07-03T12:23:11.158Z,94403.38
2023-07-03T12:26:01.596Z,94394.28
2023-07-03T12:28:46.985Z,94390.25
2023-07-03T12:31:15.108Z,94397.88
2023-07-03T12:33:49.593Z,94397.13
2023-07-03T12:36:35.175Z,94389.38
2023-07-03T12:39:13.910Z,94388.16
2023-07-03T12:41:41.013Z,94391.81
2023-07-03T12:44:09.260Z,94387.66
2023-07-03T12:46:37.683Z,94386.16
2023-07-03T12:49:09.915Z,94390.81
2023-07-03T12:51:56.498Z,94383.59
2023-07-03T12:54:23.439Z,94379.69
2023-07-03T12:56:51.059Z,94381.41
2023-07-03T12:59:19.527Z,94381.81
2023-07-03T13:01:50.623Z,94389.69
2023-07-03T13:04:27.990Z,94386.22
2023-07-03T13:06:56.008Z,94393.50
2023-07-03T13:09:22.768Z,94395.69
2023-07-03T13:11:49.978Z,94387.34
2023-07-03T13:14:20.757Z,94387.41
2023-07-03T13:16:49.819Z,94391.78
2023-07-03T13:19:33.887Z,94394.19
2023-07-03T13:22:04.199Z,94395.50
2023-07-03T13:24:31.005Z,94394.66
2023-07-03T13:26:58.313Z,94395.19
2023-07-03T13:29:29.930Z,94396.44
2023-07-03T13:32:35.118Z,94390.50
2023-07-03T13:35:03.732Z,94390.25
2023-07-03T13:37:35.246Z,94390.81
2023-07-03T13:40:03.473Z,94393.91
2023-07-03T13:42:30.946Z,94389.66
2023-07-03T13:44:57.742Z,94394.25
2023-07-03T13:47:31.859Z,94390.09
2023-07-03T13:49:58.615Z,94398.41
2023-07-03T13:52:25.448Z,94397.09
2023-07-03T13:54:53.975Z,94391.56
2023-07-03T13:57:20.829Z,94396.59
2023-07-03T13:59:47.682Z,94391.59
2023-07-03T14:02:14.488Z,94393.31
2023-07-03T14:04:41.760Z,94390.06
2023-07-03T14:07:09.306Z,94382.38
2023-07-03T14:09:44.368Z,94385.81
2023-07-03T14:12:14.007Z,94392.25
2023-07-03T14:14:42.288Z,94389.59
2023-07-03T14:17:14.032Z,94385.53
2023-07-03T14:19:43.720Z,94392.81
2023-07-03T14:22:11.903Z,94389.31
2023-07-03T14:24:41.681Z,94392.34
2023-07-03T14:27:09.230Z,94385.09
2023-07-03T14:29:37.331Z,94380.09
2023-07-03T14:32:04.739Z,94383.63
2023-07-03T14:34:31.605Z,94379.59
2023-07-03T14:36:59.420Z,94380.72
2023-07-03T14:39:31.336Z,94382.59
2023-07-03T14:41:58.196Z,94391.88
2023-07-03T14:44:25.355Z,94391.66
2023-07-03T14:47:13.676Z,94392.09
2023-07-03T14:49:41.282Z,94382.34
2023-07-03T14:52:08.719Z,94389.22
2023-07-03T14:54:35.886Z,94380.75
2023-07-03T14:57:03.037Z,94385.00
2023-07-03T14:59:31.443Z,94383.84
2023-07-03T15:01:58.274Z,94382.41
2023-07-03T15:04:28.577Z,94378.94
2023-07-03T15:06:55.605Z,94376.38
2023-07-03T15:09:22.382Z,94379.75
2023-07-03T15:11:49.205Z,94379.50
2023-07-03T15:14:15.972Z,94384.41
2023-07-03T15:16:42.852Z,94381.44
2023-07-03T15:19:11.108Z,94377.28
2023-07-03T15:21:37.927Z,94376.25
2023-07-03T15:24:06.227Z,94372.09
2023-07-03T15:26:33.876Z,94374.56
2023-07-03T15:29:00.867Z,94374.00
2023-07-03T15:31:27.865Z,94374.41
2023-07-03T15:33:56.369Z,94383.25
2023-07-03T15:36:23.162Z,94377.41
2023-07-03T15:38:50.178Z,94371.47
2023-07-03T15:41:17.391Z,94366.44
2023-07-03T15:43:48.814Z,94371.44
2023-07-03T15:46:16.320Z,94374.81
2023-07-03T15:48:43.746Z,94367.03
2023-07-03T15:51:11.479Z,94378.84
2023-07-03T15:53:38.222Z,94369.69
2023-07-03T15:56:14.993Z,94367.03
2023-07-03T15:58:43.336Z,94368.34
2023-07-03T16:01:16.764Z,94362.56
2023-07-03T16:03:43.839Z,94368.88
2023-07-03T16:06:18.764Z,94371.22
2023-07-03T16:08:45.661Z,94362.59
2023-07-03T16:11:15.982Z,94363.13
2023-07-03T16:13:46.160Z,94370.59
2023-07-03T16:16:18.454Z,94366.53
2023-07-03T16:18:52.925Z,94357.66
2023-07-03T16:21:21.629Z,94358.44
2023-07-03T16:23:50.064Z,94366.28
2023-07-03T16:26:16.785Z,94365.88
2023-07-03T16:28:43.522Z,94363.41
2023-07-03T16:31:11.333Z,94360.78
2023-07-03T16:33:45.422Z,94360.63
2023-07-03T16:36:13.714Z,94370.78
2023-07-03T16:38:53.484Z,94371.22
2023-07-03T16:41:20.771Z,94358.44
2023-07-03T16:43:48.444Z,94365.94
2023-07-03T16:46:17.193Z,94357.25
2023-07-03T16:48:43.953Z,94360.97
2023-07-03T16:51:10.707Z,94364.13
2023-07-03T16:53:41.347Z,94358.41
2023-07-03T16:56:16.061Z,94353.34
2023-07-03T16:58:43.703Z,94358.38
2023-07-03T17:01:16.467Z,94350.25
2023-07-03T17:03:43.461Z,94349.84
2023-07-03T17:06:21.055Z,94351.00
2023-07-03T17:08:47.857Z,94351.00
2023-07-03T17:11:14.650Z,94347.81
2023-07-03T17:13:41.468Z,94351.06
2023-07-03T17:16:08.413Z,94355.34
2023-07-03T17:18:36.555Z,94345.38
2023-07-03T17:21:03.388Z,94342.03
2023-07-03T17:23:31.391Z,94342.94
2023-07-03T17:25:58.256Z,94334.47
2023-07-03T17:28:26.278Z,94333.66
2023-07-03T17:30:56.013Z,94333.78
2023-07-03T17:33:22.789Z,94334.38
2023-07-03T17:35:51.116Z,94338.06
2023-07-03T17:38:18.041Z,94331.16
2023-07-03T17:40:47.431Z,94344.06
2023-07-03T17:43:15.110Z,94341.63
2023-07-03T17:45:42.563Z,94341.59
2023-07-03T17:48:10.433Z,94346.72
2023-07-03T17:50:37.765Z,94344.97
2023-07-03T17:53:04.571Z,94338.72
2023-07-03T17:55:31.802Z,94347.56
2023-07-03T17:57:58.779Z,94338.09
2023-07-03T18:00:25.901Z,94339.09
2023-07-03T18:02:52.979Z,94345.19
2023-07-03T18:05:20.148Z,94340.06
2023-07-03T18:07:46.853Z,94337.91
2023-07-03T18:10:13.602Z,94338.19
2023-07-03T18:12:40.361Z,94329.63
2023-07-03T18:15:08.616Z,94343.66
2023-07-03T18:17:35.380Z,94341.81
2023-07-03T18:20:02.116Z,94342.88
2023-07-03T18:22:29.608Z,94341.81
2023-07-03T18:24:56.409Z,94344.59
2023-07-03T18:27:23.195Z,94343.31
2023-07-03T18:29:50.029Z,94347.16
2023-07-03T18:32:16.766Z,94347.66
2023-07-03T18:34:44.910Z,94352.59
2023-07-03T18:37:11.677Z,94352.94
2023-07-03T18:39:41.432Z,94355.66
2023-07-03T18:42:08.844Z,94354.81
2023-07-03T18:44:44.867Z,94358.25
2023-07-03T18:47:11.832Z,94352.56
2023-07-03T18:49:40.468Z,94362.16
2023-07-03T18:52:08.265Z,94354.81
2023-07-03T18:54:35.008Z,94353.53
2023-07-03T18:57:03.805Z,94364.03
2023-07-03T18:59:30.917Z,94355.63
2023-07-03T19:01:57.653Z,94358.34
2023-07-03T19:04:24.817Z,94367.13
2023-07-03T19:06:51.619Z,94358.91
2023-07-03T19:09:19.706Z,94362.72
2023-07-03T19:11:49.323Z,94367.22
2023-07-03T19:14:16.427Z,94365.28
2023-07-03T19:16:44.651Z,94375.84
2023-07-03T19:19:11.983Z,94374.19
2023-07-03T19:21:40.336Z,94374.06
2023-07-03T19:24:07.422Z,94375.22
2023-07-03T19:26:34.222Z,94381.41
2023-07-03T19:29:01.274Z,94383.13
2023-07-03T19:31:28.514Z,94391.09
2023-07-03T19:34:00.441Z,94393.06
2023-07-03T19:36:27.233Z,94392.63
2023-07-03T19:38:54.468Z,94402.34
2023-07-03T19:41:21.395Z,94402.97
2023-07-03T19:43:49.107Z,94400.09
2023-07-03T19:46:16.634Z,94402.38
2023-07-03T19:48:43.838Z,94399.44
2023-07-03T19:51:10.572Z,94409.06
2023-07-03T19:53:37.713Z,94405.34
2023-07-03T19:56:12.932Z,94414.06
2023-07-03T19:58:40.152Z,94408.66
2023-07-03T20:01:07.192Z,94423.09
2023-07-03T20:03:34.368Z,94417.72
2023-07-03T20:06:01.178Z,94428.69
2023-07-03T20:08:30.482Z,94431.56
2023-07-03T20:11:01.817Z,94439.81
2023-07-03T20:13:29.732Z,94441.66
2023-07-03T20:16:01.052Z,94440.28
2023-07-03T20:18:28.188Z,94440.44
2023-07-03T20:20:55.270Z,94434.50
2023-07-03T20:23:22.556Z,94439.53
2023-07-03T20:25:56.297Z,94440.25
2023-07-03T20:28:23.781Z,94438.84
2023-07-03T20:30:53.538Z,94442.13
2023-07-03T20:33:20.303Z,94450.44
2023-07-03T20:36:01.925Z,94453.47
2023-07-03T20:38:30.648Z,94453.56
2023-07-03T20:41:02.586Z,94452.63
2023-07-03T20:43:29.699Z,94455.91
2023-07-03T20:46:03.767Z,94455.66
2023-07-03T20:48:37.136Z,94450.50
2023-07-03T20:51:04.532Z,94445.03
2023-07-03T20:53:34.088Z,94458.00
2023-07-03T20:56:02.660Z,94464.53
2023-07-03T20:58:29.780Z,94458.41
2023-07-03T21:00:57.054Z,94462.56
2023-07-03T21:03:25.061Z,94457.34
2023-07-03T21:05:52.498Z,94461.75
2023-07-03T21:08:19.459Z,94466.72
2023-07-03T21:10:51.288Z,94465.78
2023-07-03T21:13:18.082Z,94464.59
2023-07-03T21:15:45.049Z,94468.66
2023-07-03T21:18:12.183Z,94466.50
2023-07-03T21:20:39.640Z,94459.06
2023-07-03T21:23:06.727Z,94468.03
2023-07-03T21:25:34.265Z,94473.00
2023-07-03T21:28:01.060Z,94466.81
2023-07-03T21:30:27.839Z,94466.44
2023-07-03T21:32:55.238Z,94474.13
2023-07-03T21:35:22.334Z,94470.63
2023-07-03T21:37:51.948Z,94476.59
2023-07-03T21:40:18.683Z,94479.91
2023-07-03T21:42:46.362Z,94472.56
2023-07-03T21:45:13.084Z,94467.66
2023-07-03T21:47:47.023Z,94478.13
2023-07-03T21:50:13.769Z,94475.50
2023-07-03T21:52:40.536Z,94479.22
2023-07-03T21:55:09.205Z,94483.13
2023-07-03T21:57:36.471Z,94474.81
2023-07-03T22:00:04.001Z,94477.94
2023-07-03T22:02:33.366Z,94484.63
2023-07-03T22:05:00.418Z,94491.34
2023-07-03T22:07:27.632Z,94482.03
2023-07-03T22:09:55.045Z,94479.28
2023-07-03T22:12:22.481Z,94483.91
2023-07-03T22:14:49.784Z,94480.25
2023-07-03T22:17:16.517Z,94473.16
2023-07-03T22:19:43.600Z,94473.31
2023-07-03T22:22:10.910Z,94470.06
2023-07-03T22:24:38.486Z,94461.84
2023-07-03T22:27:05.851Z,94463.63
2023-07-03T22:29:33.040Z,94463.09
2023-07-03T22:32:00.189Z,94461.84
2023-07-03T22:34:27.304Z,94462.25
2023-07-03T22:36:54.091Z,94459.06
2023-07-03T22:39:20.813Z,94459.84
2023-07-03T22:41:47.617Z,94455.03
2023-07-03T22:44:20.585Z,94459.03
2023-07-03T22:46:50.568Z,94458.59
2023-07-03T22:49:24.413Z,94452.31
2023-07-03T22:51:52.050Z,94459.75
2023-07-03T22:54:19.644Z,94456.59
2023-07-03T22:56:46.766Z,94448.72
2023-07-03T22:59:15.393Z,94454.06
2023-07-03T23:01:42.679Z,94456.31
2023-07-03T23:04:09.425Z,94455.75
2023-07-03T23:06:37.266Z,94449.53
2023-07-03T23:09:03.998Z,94454.75
2023-07-03T23:11:30.697Z,94451.25
2023-07-03T23:13:58.900Z,94457.59
2023-07-03T23:16:25.909Z,94451.16
2023-07-03T23:18:52.725Z,94453.13
2023-07-03T23:21:19.437Z,94455.63
2023-07-03T23:23:46.146Z,94455.81
2023-07-03T23:26:14.217Z,94460.97
2023-07-03T23:28:42.057Z,94452.50
2023-07-03T23:31:13.706Z,94460.00
2023-07-03T23:33:41.054Z,94454.53
2023-07-03T23:36:09.645Z,94458.50
2023-07-03T23:38:37.215Z,94463.75
2023-07-03T23:41:05.692Z,94464.47
2023-07-03T23:43:40.447Z,94459.72
2023-07-03T23:46:08.193Z,94466.28
2023-07-03T23:48:36.822Z,94465.50
2023-07-03T23:51:05.523Z,94465.88
2023-07-03T23:53:34.054Z,94453.22
2023-07-03T23:56:04.417Z,94461.59
2023-07-03T23:58:36.559Z,94457.19
